Terminal Aerodrome Forecast
Issued by NWS

Home | Current Version | Previous Version | Text Only | Print | Product List | Glossary On
Versions: 1 2 3 4 5 6 7 8 9 10 11 12 13 14 15 16 17 18 19 20 21 22 23 24 25 26 27
000
FTUS44 KSJT 222300
TAFBBD
TAF
KBBD 222334Z 2300/2324 13011KT P6SM SCT015
     FM230200 13010KT P6SM OVC012
     FM230500 14009KT 6SM BR OVC007
     FM230800 15011KT 4SM -DZ BR OVC004
     FM231600 16011KT 6SM BR OVC008
     FM231900 16011KT P6SM VCTS BKN025CB=

USA.gov is the U.S. government's official web portal to all federal, state and local government web resources and services.